sensor_id;sensor_type;location;lat;lon;timestamp;temperature;humidity
27858;DHT22;16852;51.446;6.528;2024-03-23T00:52:18;9.40;99.90
27858;DHT22;16852;51.446;6.528;2024-03-23T00:54:18;9.40;99.90
27858;DHT22;16852;51.446;6.528;2024-03-23T00:56:19;9.40;99.90
27858;DHT22;16852;51.446;6.528;2024-03-23T00:58:19;9.40;99.90
27858;DHT22;16852;51.446;6.528;2024-03-23T01:00:20;9.30;99.90
27858;DHT22;16852;51.446;6.528;2024-03-23T01:02:21;9.30;99.90
27858;DHT22;16852;51.446;6.528;2024-03-23T01:04:21;9.30;99.90
27858;DHT22;16852;51.446;6.528;2024-03-23T01:06:22;9.30;99.90
27858;DHT22;16852;51.446;6.528;2024-03-23T01:08:23;9.30;99.90
27858;DHT22;16852;51.446;6.528;2024-03-23T01:10:23;9.40;99.90
27858;DHT22;16852;51.446;6.528;2024-03-23T01:12:24;9.40;99.90
27858;DHT22;16852;51.446;6.528;2024-03-23T01:14:25;9.40;99.90
27858;DHT22;16852;51.446;6.528;2024-03-23T01:16:25;9.40;99.90
27858;DHT22;16852;51.446;6.528;2024-03-23T01:18:26;9.40;99.90
27858;DHT22;16852;51.446;6.528;2024-03-23T01:20:26;9.40;99.90
27858;DHT22;16852;51.446;6.528;2024-03-23T01:22:28;9.40;99.90
27858;DHT22;16852;51.446;6.528;2024-03-23T01:24:28;9.50;99.90
27858;DHT22;16852;51.446;6.528;2024-03-23T01:26:29;9.50;99.90
27858;DHT22;16852;51.446;6.528;2024-03-23T01:28:29;9.30;99.90
27858;DHT22;16852;51.446;6.528;2024-03-23T01:30:30;9.40;99.90
27858;DHT22;16852;51.446;6.528;2024-03-23T01:32:31;9.40;99.90
27858;DHT22;16852;51.446;6.528;2024-03-23T01:34:31;9.40;99.90
27858;DHT22;16852;51.446;6.528;2024-03-23T01:36:32;9.40;99.90
27858;DHT22;16852;51.446;6.528;2024-03-23T01:38:32;9.40;99.90
27858;DHT22;16852;51.446;6.528;2024-03-23T01:40:33;9.40;99.90
27858;DHT22;16852;51.446;6.528;2024-03-23T01:42:34;9.30;99.90
27858;DHT22;16852;51.446;6.528;2024-03-23T01:44:34;9.30;99.90
27858;DHT22;16852;51.446;6.528;2024-03-23T01:46:37;9.30;99.90
27858;DHT22;16852;51.446;6.528;2024-03-23T01:48:37;9.30;99.90
27858;DHT22;16852;51.446;6.528;2024-03-23T01:50:38;9.30;99.90
27858;DHT22;16852;51.446;6.528;2024-03-23T01:52:39;9.30;99.90
27858;DHT22;16852;51.446;6.528;2024-03-23T01:54:40;9.30;99.90
27858;DHT22;16852;51.446;6.528;2024-03-23T01:56:41;9.30;99.90
27858;DHT22;16852;51.446;6.528;2024-03-23T01:58:42;9.30;99.90
27858;DHT22;16852;51.446;6.528;2024-03-23T02:00:42;9.30;99.90
27858;DHT22;16852;51.446;6.528;2024-03-23T02:02:46;9.20;99.90
27858;DHT22;16852;51.446;6.528;2024-03-23T02:04:47;9.20;99.90
27858;DHT22;16852;51.446;6.528;2024-03-23T02:06:48;9.20;99.90
27858;DHT22;16852;51.446;6.528;2024-03-23T02:08:50;9.20;99.90
27858;DHT22;16852;51.446;6.528;2024-03-23T02:10:51;9.20;99.90
27858;DHT22;16852;51.446;6.528;2024-03-23T02:12:51;9.20;99.90
27858;DHT22;16852;51.446;6.528;2024-03-23T02:14:52;9.30;99.90
27858;DHT22;16852;51.446;6.528;2024-03-23T02:16:52;9.20;99.90
27858;DHT22;16852;51.446;6.528;2024-03-23T02:18:53;9.30;99.90
27858;DHT22;16852;51.446;6.528;2024-03-23T02:20:54;9.30;99.90
27858;DHT22;16852;51.446;6.528;2024-03-23T02:22:54;9.30;99.90
27858;DHT22;16852;51.446;6.528;2024-03-23T02:24:55;9.30;99.90
27858;DHT22;16852;51.446;6.528;2024-03-23T02:26:55;9.30;99.90
27858;DHT22;16852;51.446;6.528;2024-03-23T02:28:56;9.40;99.90
27858;DHT22;16852;51.446;6.528;2024-03-23T02:30:56;9.40;99.90
27858;DHT22;16852;51.446;6.528;2024-03-23T02:32:59;9.30;99.90
27858;DHT22;16852;51.446;6.528;2024-03-23T02:34:59;9.40;99.90
27858;DHT22;16852;51.446;6.528;2024-03-23T02:37:00;9.30;99.90
27858;DHT22;16852;51.446;6.528;2024-03-23T02:39:00;9.30;99.90
27858;DHT22;16852;51.446;6.528;2024-03-23T02:41:04;9.30;99.90
27858;DHT22;16852;51.446;6.528;2024-03-23T02:43:05;9.30;99.90
27858;DHT22;16852;51.446;6.528;2024-03-23T02:45:05;9.30;99.90
27858;DHT22;16852;51.446;6.528;2024-03-23T02:47:06;9.30;99.90
27858;DHT22;16852;51.446;6.528;2024-03-23T02:49:07;9.20;99.90
27858;DHT22;16852;51.446;6.528;2024-03-23T02:51:08;9.20;99.90
27858;DHT22;16852;51.446;6.528;2024-03-23T02:53:09;9.20;99.90
27858;DHT22;16852;51.446;6.528;2024-03-23T02:55:10;9.20;99.90
27858;DHT22;16852;51.446;6.528;2024-03-23T02:57:11;9.20;99.90
27858;DHT22;16852;51.446;6.528;2024-03-23T02:59:11;9.10;99.90
27858;DHT22;16852;51.446;6.528;2024-03-23T03:01:12;9.20;99.90
27858;DHT22;16852;51.446;6.528;2024-03-23T03:03:12;9.20;99.90
27858;DHT22;16852;51.446;6.528;2024-03-23T03:05:13;9.20;99.90
27858;DHT22;16852;51.446;6.528;2024-03-23T03:07:14;9.20;99.90
27858;DHT22;16852;51.446;6.528;2024-03-23T03:09:15;9.10;99.90
27858;DHT22;16852;51.446;6.528;2024-03-23T03:11:15;9.10;99.90
27858;DHT22;16852;51.446;6.528;2024-03-23T03:13:16;9.10;99.90
27858;DHT22;16852;51.446;6.528;2024-03-23T03:15:17;9.10;99.90
27858;DHT22;16852;51.446;6.528;2024-03-23T03:17:17;9.10;99.90
27858;DHT22;16852;51.446;6.528;2024-03-23T03:19:19;9.00;99.90
27858;DHT22;16852;51.446;6.528;2024-03-23T03:21:20;9.00;99.90
27858;DHT22;16852;51.446;6.528;2024-03-23T03:23:20;9.00;99.90
27858;DHT22;16852;51.446;6.528;2024-03-23T03:25:21;9.00;99.90
27858;DHT22;16852;51.446;6.528;2024-03-23T03:27:22;8.90;99.90
27858;DHT22;16852;51.446;6.528;2024-03-23T03:29:23;8.90;99.90
27858;DHT22;16852;51.446;6.528;2024-03-23T03:31:24;9.00;99.90
27858;DHT22;16852;51.446;6.528;2024-03-23T03:33:25;8.90;99.90
27858;DHT22;16852;51.446;6.528;2024-03-23T03:35:25;8.90;99.90
27858;DHT22;16852;51.446;6.528;2024-03-23T03:37:26;8.90;99.90
27858;DHT22;16852;51.446;6.528;2024-03-23T03:39:27;8.90;99.90
27858;DHT22;16852;51.446;6.528;2024-03-23T03:41:27;8.90;99.90
27858;DHT22;16852;51.446;6.528;2024-03-23T03:43:28;8.90;99.90
27858;DHT22;16852;51.446;6.528;2024-03-23T03:45:29;8.90;99.90
27858;DHT22;16852;51.446;6.528;2024-03-23T03:47:29;8.90;99.90
27858;DHT22;16852;51.446;6.528;2024-03-23T03:49:30;8.80;99.90
27858;DHT22;16852;51.446;6.528;2024-03-23T03:51:30;8.80;99.90
27858;DHT22;16852;51.446;6.528;2024-03-23T03:53:31;8.70;99.90
27858;DHT22;16852;51.446;6.528;2024-03-23T03:55:32;8.70;99.90
27858;DHT22;16852;51.446;6.528;2024-03-23T03:57:32;8.60;99.90
27858;DHT22;16852;51.446;6.528;2024-03-23T03:59:33;8.60;99.90
27858;DHT22;16852;51.446;6.528;2024-03-23T04:01:33;8.60;99.90
27858;DHT22;16852;51.446;6.528;2024-03-23T04:03:34;8.60;99.90
27858;DHT22;16852;51.446;6.528;2024-03-23T04:05:35;8.60;99.90
27858;DHT22;16852;51.446;6.528;2024-03-23T04:07:35;8.60;99.90
27858;DHT22;16852;51.446;6.528;2024-03-23T04:09:36;8.60;99.90
27858;DHT22;16852;51.446;6.528;2024-03-23T04:11:37;8.50;99.90
27858;DHT22;16852;51.446;6.528;2024-03-23T04:13:38;8.60;99.90
27858;DHT22;16852;51.446;6.528;2024-03-23T04:15:42;8.50;99.90
27858;DHT22;16852;51.446;6.528;2024-03-23T04:17:42;8.40;99.90
27858;DHT22;16852;51.446;6.528;2024-03-23T04:19:44;8.50;99.90
27858;DHT22;16852;51.446;6.528;2024-03-23T04:21:45;8.40;99.90
27858;DHT22;16852;51.446;6.528;2024-03-23T04:23:45;8.40;99.90
27858;DHT22;16852;51.446;6.528;2024-03-23T04:25:46;8.40;99.90
27858;DHT22;16852;51.446;6.528;2024-03-23T04:27:47;8.40;99.90
27858;DHT22;16852;51.446;6.528;2024-03-23T04:29:51;8.40;99.90
27858;DHT22;16852;51.446;6.528;2024-03-23T04:31:53;8.40;99.90
27858;DHT22;16852;51.446;6.528;2024-03-23T04:33:53;8.40;99.90
27858;DHT22;16852;51.446;6.528;2024-03-23T04:35:54;8.40;99.90
27858;DHT22;16852;51.446;6.528;2024-03-23T04:37:55;8.40;99.90
27858;DHT22;16852;51.446;6.528;2024-03-23T04:40:00;8.40;99.90
27858;DHT22;16852;51.446;6.528;2024-03-23T04:42:01;8.40;99.90
27858;DHT22;16852;51.446;6.528;2024-03-23T04:44:02;8.40;99.90
27858;DHT22;16852;51.446;6.528;2024-03-23T04:46:02;8.40;99.90
27858;DHT22;16852;51.446;6.528;2024-03-23T04:48:03;8.40;99.90
27858;DHT22;16852;51.446;6.528;2024-03-23T04:50:04;8.40;99.90
27858;DHT22;16852;51.446;6.528;2024-03-23T04:52:05;8.30;99.90
27858;DHT22;16852;51.446;6.528;2024-03-23T04:54:06;8.30;99.90
27858;DHT22;16852;51.446;6.528;2024-03-23T04:56:06;8.40;99.90
27858;DHT22;16852;51.446;6.528;2024-03-23T04:58:07;8.40;99.90
27858;DHT22;16852;51.446;6.528;2024-03-23T05:00:08;8.40;99.90
27858;DHT22;16852;51.446;6.528;2024-03-23T05:02:17;8.40;99.90
27858;DHT22;16852;51.446;6.528;2024-03-23T05:04:18;8.40;99.90
27858;DHT22;16852;51.446;6.528;2024-03-23T05:06:19;8.40;99.90
27858;DHT22;16852;51.446;6.528;2024-03-23T05:08:19;8.40;99.90
27858;DHT22;16852;51.446;6.528;2024-03-23T05:10:20;8.40;99.90
27858;DHT22;16852;51.446;6.528;2024-03-23T05:12:20;8.40;99.90
27858;DHT22;16852;51.446;6.528;2024-03-23T05:14:21;8.40;99.90
27858;DHT22;16852;51.446;6.528;2024-03-23T05:16:21;8.40;99.90
27858;DHT22;16852;51.446;6.528;2024-03-23T05:18:22;8.40;99.90
27858;DHT22;16852;51.446;6.528;2024-03-23T05:20:23;8.40;99.90
27858;DHT22;16852;51.446;6.528;2024-03-23T05:22:23;8.40;99.90
27858;DHT22;16852;51.446;6.528;2024-03-23T05:24:24;8.30;99.90
27858;DHT22;16852;51.446;6.528;2024-03-23T05:26:24;8.30;99.90
27858;DHT22;16852;51.446;6.528;2024-03-23T05:28:25;8.30;99.90
27858;DHT22;16852;51.446;6.528;2024-03-23T05:30:26;8.20;99.90
27858;DHT22;16852;51.446;6.528;2024-03-23T05:32:26;8.20;99.90
27858;DHT22;16852;51.446;6.528;2024-03-23T05:34:27;8.20;99.90
27858;DHT22;16852;51.446;6.528;2024-03-23T05:36:29;8.20;99.90
27858;DHT22;16852;51.446;6.528;2024-03-23T05:38:30;8.20;99.90
27858;DHT22;16852;51.446;6.528;2024-03-23T05:40:30;8.20;99.90
27858;DHT22;16852;51.446;6.528;2024-03-23T05:42:32;8.10;99.90
27858;DHT22;16852;51.446;6.528;2024-03-23T05:44:32;8.20;99.90
27858;DHT22;16852;51.446;6.528;2024-03-23T05:46:33;8.10;99.90
27858;DHT22;16852;51.446;6.528;2024-03-23T05:48:34;8.10;99.90
27858;DHT22;16852;51.446;6.528;2024-03-23T05:50:35;8.10;99.90
27858;DHT22;16852;51.446;6.528;2024-03-23T05:52:36;8.10;99.90
27858;DHT22;16852;51.446;6.528;2024-03-23T05:54:36;8.00;99.90
27858;DHT22;16852;51.446;6.528;2024-03-23T05:56:37;7.90;99.90
27858;DHT22;16852;51.446;6.528;2024-03-23T05:58:37;8.00;99.90
27858;DHT22;16852;51.446;6.528;2024-03-23T06:00:38;7.90;99.90
27858;DHT22;16852;51.446;6.528;2024-03-23T06:02:39;7.90;99.90
27858;DHT22;16852;51.446;6.528;2024-03-23T06:04:39;7.90;99.90
27858;DHT22;16852;51.446;6.528;2024-03-23T06:06:40;7.90;99.90
27858;DHT22;16852;51.446;6.528;2024-03-23T06:08:40;7.90;99.90
27858;DHT22;16852;51.446;6.528;2024-03-23T06:10:41;7.90;99.90
27858;DHT22;16852;51.446;6.528;2024-03-23T06:12:42;7.90;99.90
27858;DHT22;16852;51.446;6.528;2024-03-23T06:14:42;7.90;99.90
27858;DHT22;16852;51.446;6.528;2024-03-23T06:16:43;7.90;99.90
27858;DHT22;16852;51.446;6.528;2024-03-23T06:18:43;7.90;99.90
27858;DHT22;16852;51.446;6.528;2024-03-23T06:20:44;7.90;99.90
27858;DHT22;16852;51.446;6.528;2024-03-23T06:22:45;8.00;99.90
27858;DHT22;16852;51.446;6.528;2024-03-23T06:24:45;8.00;99.90
27858;DHT22;16852;51.446;6.528;2024-03-23T06:26:46;8.00;99.90
27858;DHT22;16852;51.446;6.528;2024-03-23T06:28:47;8.00;99.90
27858;DHT22;16852;51.446;6.528;2024-03-23T06:30:48;8.00;99.90
27858;DHT22;16852;51.446;6.528;2024-03-23T06:32:48;8.10;99.90
27858;DHT22;16852;51.446;6.528;2024-03-23T06:34:49;8.10;99.90
27858;DHT22;16852;51.446;6.528;2024-03-23T06:36:50;8.30;99.90
27858;DHT22;16852;51.446;6.528;2024-03-23T06:38:51;8.60;99.90
27858;DHT22;16852;51.446;6.528;2024-03-23T06:40:52;8.80;99.90
27858;DHT22;16852;51.446;6.528;2024-03-23T06:42:53;9.00;99.90
27858;DHT22;16852;51.446;6.528;2024-03-23T06:44:53;9.20;99.90
27858;DHT22;16852;51.446;6.528;2024-03-23T06:46:54;9.50;99.90
27858;DHT22;16852;51.446;6.528;2024-03-23T06:48:55;9.80;99.90
27858;DHT22;16852;51.446;6.528;2024-03-23T06:50:58;9.90;99.90
27858;DHT22;16852;51.446;6.528;2024-03-23T06:52:59;10.20;99.90
27858;DHT22;16852;51.446;6.528;2024-03-23T06:55:02;10.50;99.90
27858;DHT22;16852;51.446;6.528;2024-03-23T06:57:04;10.90;99.90
27858;DHT22;16852;51.446;6.528;2024-03-23T06:59:05;11.30;99.90
27858;DHT22;16852;51.446;6.528;2024-03-23T07:01:06;11.60;99.90
27858;DHT22;16852;51.446;6.528;2024-03-23T07:03:07;11.90;99.90
27858;DHT22;16852;51.446;6.528;2024-03-23T07:05:08;12.20;99.90
27858;DHT22;16852;51.446;6.528;2024-03-23T07:07:08;12.40;99.90
27858;DHT22;16852;51.446;6.528;2024-03-23T07:09:09;12.60;99.90
27858;DHT22;16852;51.446;6.528;2024-03-23T07:11:10;12.80;99.90
27858;DHT22;16852;51.446;6.528;2024-03-23T07:13:10;12.90;99.90
27858;DHT22;16852;51.446;6.528;2024-03-23T07:15:11;12.90;99.90
27858;DHT22;16852;51.446;6.528;2024-03-23T07:17:11;13.10;99.90
27858;DHT22;16852;51.446;6.528;2024-03-23T07:19:12;13.40;99.90
27858;DHT22;16852;51.446;6.528;2024-03-23T07:21:12;13.70;99.90
27858;DHT22;16852;51.446;6.528;2024-03-23T07:23:13;13.80;99.90
27858;DHT22;16852;51.446;6.528;2024-03-23T07:25:14;14.00;99.90
27858;DHT22;16852;51.446;6.528;2024-03-23T07:27:15;14.10;99.90
27858;DHT22;16852;51.446;6.528;2024-03-23T07:29:16;14.20;99.90
27858;DHT22;16852;51.446;6.528;2024-03-23T07:31:16;14.20;99.90
27858;DHT22;16852;51.446;6.528;2024-03-23T07:33:17;14.20;99.90
27858;DHT22;16852;51.446;6.528;2024-03-23T07:35:18;14.20;99.90
27858;DHT22;16852;51.446;6.528;2024-03-23T07:37:18;14.20;99.90
27858;DHT22;16852;51.446;6.528;2024-03-23T07:39:19;14.20;99.90
27858;DHT22;16852;51.446;6.528;2024-03-23T07:41:20;14.20;99.90
27858;DHT22;16852;51.446;6.528;2024-03-23T07:43:21;14.20;99.90
27858;DHT22;16852;51.446;6.528;2024-03-23T07:45:22;14.10;99.90
27858;DHT22;16852;51.446;6.528;2024-03-23T07:47:23;14.20;99.90
27858;DHT22;16852;51.446;6.528;2024-03-23T07:49:23;14.30;99.90
27858;DHT22;16852;51.446;6.528;2024-03-23T07:51:24;14.30;99.90
27858;DHT22;16852;51.446;6.528;2024-03-23T07:53:25;14.30;99.90
27858;DHT22;16852;51.446;6.528;2024-03-23T07:55:26;14.20;99.90
27858;DHT22;16852;51.446;6.528;2024-03-23T07:57:26;14.20;99.90
27858;DHT22;16852;51.446;6.528;2024-03-23T07:59:27;14.20;99.90
27858;DHT22;16852;51.446;6.528;2024-03-23T08:01:31;14.30;99.90
27858;DHT22;16852;51.446;6.528;2024-03-23T08:03:32;14.20;99.90
27858;DHT22;16852;51.446;6.528;2024-03-23T08:05:32;14.30;99.90
27858;DHT22;16852;51.446;6.528;2024-03-23T08:07:34;14.30;99.90
27858;DHT22;16852;51.446;6.528;2024-03-23T08:09:35;14.10;99.90
27858;DHT22;16852;51.446;6.528;2024-03-23T08:11:36;13.80;99.90
27858;DHT22;16852;51.446;6.528;2024-03-23T08:13:39;13.60;99.90
27858;DHT22;16852;51.446;6.528;2024-03-23T08:15:40;13.30;99.90
27858;DHT22;16852;51.446;6.528;2024-03-23T08:17:40;12.90;99.90
27858;DHT22;16852;51.446;6.528;2024-03-23T08:19:41;12.70;99.90
27858;DHT22;16852;51.446;6.528;2024-03-23T08:21:42;12.50;99.90
27858;DHT22;16852;51.446;6.528;2024-03-23T08:23:42;12.30;99.90
27858;DHT22;16852;51.446;6.528;2024-03-23T08:25:43;11.80;99.90
27858;DHT22;16852;51.446;6.528;2024-03-23T08:27:46;11.60;99.90
27858;DHT22;16852;51.446;6.528;2024-03-23T08:29:47;11.50;99.90
27858;DHT22;16852;51.446;6.528;2024-03-23T08:31:48;11.30;99.90
27858;DHT22;16852;51.446;6.528;2024-03-23T08:33:48;11.30;99.90
27858;DHT22;16852;51.446;6.528;2024-03-23T08:36:01;11.10;99.90
27858;DHT22;16852;51.446;6.528;2024-03-23T08:38:02;10.90;99.90
27858;DHT22;16852;51.446;6.528;2024-03-23T08:40:03;10.90;99.90
27858;DHT22;16852;51.446;6.528;2024-03-23T08:42:05;10.90;99.90
27858;DHT22;16852;51.446;6.528;2024-03-23T08:44:05;10.80;99.90
27858;DHT22;16852;51.446;6.528;2024-03-23T08:46:07;10.90;99.90
27858;DHT22;16852;51.446;6.528;2024-03-23T08:48:08;10.90;99.90
27858;DHT22;16852;51.446;6.528;2024-03-23T08:50:09;11.00;99.90
27858;DHT22;16852;51.446;6.528;2024-03-23T08:52:10;11.10;99.90
27858;DHT22;16852;51.446;6.528;2024-03-23T08:54:10;11.20;99.90
27858;DHT22;16852;51.446;6.528;2024-03-23T08:56:11;11.30;99.90
27858;DHT22;16852;51.446;6.528;2024-03-23T08:58:12;11.40;99.90
27858;DHT22;16852;51.446;6.528;2024-03-23T09:00:14;11.40;99.90
27858;DHT22;16852;51.446;6.528;2024-03-23T09:02:15;11.50;99.90
27858;DHT22;16852;51.446;6.528;2024-03-23T09:04:15;11.60;99.90
27858;DHT22;16852;51.446;6.528;2024-03-23T09:06:16;11.80;99.90
27858;DHT22;16852;51.446;6.528;2024-03-23T09:08:17;11.80;99.90
27858;DHT22;16852;51.446;6.528;2024-03-23T09:10:18;11.80;99.90
27858;DHT22;16852;51.446;6.528;2024-03-23T09:12:37;11.80;99.90
27858;DHT22;16852;51.446;6.528;2024-03-23T09:14:56;11.80;99.90
27858;DHT22;16852;51.446;6.528;2024-03-23T09:17:15;11.90;99.90
27858;DHT22;16852;51.446;6.528;2024-03-23T09:19:34;11.90;99.90
27858;DHT22;16852;51.446;6.528;2024-03-23T09:21:34;11.80;99.90
27858;DHT22;16852;51.446;6.528;2024-03-23T09:23:35;11.70;99.90
27858;DHT22;16852;51.446;6.528;2024-03-23T09:25:37;11.60;99.90
27858;DHT22;16852;51.446;6.528;2024-03-23T09:27:38;11.60;99.90
27858;DHT22;16852;51.446;6.528;2024-03-23T09:29:38;11.50;99.90
27858;DHT22;16852;51.446;6.528;2024-03-23T09:31:40;11.40;99.90
27858;DHT22;16852;51.446;6.528;2024-03-23T09:33:41;11.30;99.90
27858;DHT22;16852;51.446;6.528;2024-03-23T09:35:43;11.30;99.90
27858;DHT22;16852;51.446;6.528;2024-03-23T09:37:45;11.20;99.90
27858;DHT22;16852;51.446;6.528;2024-03-23T09:39:45;11.20;99.90
27858;DHT22;16852;51.446;6.528;2024-03-23T09:41:46;11.20;99.90
27858;DHT22;16852;51.446;6.528;2024-03-23T09:43:47;11.30;99.90
27858;DHT22;16852;51.446;6.528;2024-03-23T09:45:49;11.20;99.90
27858;DHT22;16852;51.446;6.528;2024-03-23T09:47:49;11.20;99.90
27858;DHT22;16852;51.446;6.528;2024-03-23T09:49:51;11.20;99.90
27858;DHT22;16852;51.446;6.528;2024-03-23T09:51:52;11.10;99.90
27858;DHT22;16852;51.446;6.528;2024-03-23T09:53:55;11.10;99.90
27858;DHT22;16852;51.446;6.528;2024-03-23T09:55:56;11.10;99.90
27858;DHT22;16852;51.446;6.528;2024-03-23T09:57:56;11.10;99.90
27858;DHT22;16852;51.446;6.528;2024-03-23T09:59:57;11.10;99.90
27858;DHT22;16852;51.446;6.528;2024-03-23T10:01:58;11.20;99.90
27858;DHT22;16852;51.446;6.528;2024-03-23T10:03:59;11.20;99.90
27858;DHT22;16852;51.446;6.528;2024-03-23T10:06:03;11.20;99.90
27858;DHT22;16852;51.446;6.528;2024-03-23T10:10:16;11.30;99.90
27858;DHT22;16852;51.446;6.528;2024-03-23T10:12:18;11.30;99.90
27858;DHT22;16852;51.446;6.528;2024-03-23T10:14:45;11.30;99.90
27858;DHT22;16852;51.446;6.528;2024-03-23T10:16:45;11.10;99.90
27858;DHT22;16852;51.446;6.528;2024-03-23T10:18:46;10.90;99.90
27858;DHT22;16852;51.446;6.528;2024-03-23T10:21:08;10.60;99.90
27858;DHT22;16852;51.446;6.528;2024-03-23T10:23:16;10.20;99.90
27858;DHT22;16852;51.446;6.528;2024-03-23T10:25:17;9.90;99.90
27858;DHT22;16852;51.446;6.528;2024-03-23T10:27:21;9.60;99.90
27858;DHT22;16852;51.446;6.528;2024-03-23T10:29:22;9.50;99.90
27858;DHT22;16852;51.446;6.528;2024-03-23T10:31:22;9.50;99.90
27858;DHT22;16852;51.446;6.528;2024-03-23T10:33:23;9.30;99.90
27858;DHT22;16852;51.446;6.528;2024-03-23T10:35:23;9.10;99.90
27858;DHT22;16852;51.446;6.528;2024-03-23T10:37:24;9.00;99.90
27858;DHT22;16852;51.446;6.528;2024-03-23T10:39:25;8.90;99.90
27858;DHT22;16852;51.446;6.528;2024-03-23T10:41:29;8.80;99.90
27858;DHT22;16852;51.446;6.528;2024-03-23T10:43:33;8.90;99.90
27858;DHT22;16852;51.446;6.528;2024-03-23T10:45:33;8.90;99.90
27858;DHT22;16852;51.446;6.528;2024-03-23T10:47:35;8.80;99.90
27858;DHT22;16852;51.446;6.528;2024-03-23T10:49:36;8.90;99.90
27858;DHT22;16852;51.446;6.528;2024-03-23T10:51:37;8.90;99.90
27858;DHT22;16852;51.446;6.528;2024-03-23T10:53:38;8.90;99.90
27858;DHT22;16852;51.446;6.528;2024-03-23T10:55:40;8.90;99.90
27858;DHT22;16852;51.446;6.528;2024-03-23T10:57:45;9.00;99.90
27858;DHT22;16852;51.446;6.528;2024-03-23T10:59:48;9.00;99.90
27858;DHT22;16852;51.446;6.528;2024-03-23T11:01:59;9.00;99.90
27858;DHT22;16852;51.446;6.528;2024-03-23T11:04:01;8.90;99.90
27858;DHT22;16852;51.446;6.528;2024-03-23T11:06:02;9.00;99.90
27858;DHT22;16852;51.446;6.528;2024-03-23T11:08:03;9.10;99.90
27858;DHT22;16852;51.446;6.528;2024-03-23T11:10:25;9.20;99.90
27858;DHT22;16852;51.446;6.528;2024-03-23T11:12:27;9.30;99.90
27858;DHT22;16852;51.446;6.528;2024-03-23T11:14:32;9.50;99.90
27858;DHT22;16852;51.446;6.528;2024-03-23T11:16:33;9.60;99.90
27858;DHT22;16852;51.446;6.528;2024-03-23T11:18:36;9.70;99.90
27858;DHT22;16852;51.446;6.528;2024-03-23T11:20:37;9.80;99.90
27858;DHT22;16852;51.446;6.528;2024-03-23T11:24:41;10.10;99.90
27858;DHT22;16852;51.446;6.528;2024-03-23T11:26:43;10.10;99.90
27858;DHT22;16852;51.446;6.528;2024-03-23T11:28:44;10.30;99.90
27858;DHT22;16852;51.446;6.528;2024-03-23T11:30:44;10.30;99.90
27858;DHT22;16852;51.446;6.528;2024-03-23T11:32:46;10.40;99.90
27858;DHT22;16852;51.446;6.528;2024-03-23T11:34:47;10.50;99.90
27858;DHT22;16852;51.446;6.528;2024-03-23T11:36:49;10.60;99.90
27858;DHT22;16852;51.446;6.528;2024-03-23T11:38:52;10.30;99.90
27858;DHT22;16852;51.446;6.528;2024-03-23T11:40:53;10.10;99.90
27858;DHT22;16852;51.446;6.528;2024-03-23T11:42:58;10.00;99.90
27858;DHT22;16852;51.446;6.528;2024-03-23T11:44:58;10.00;99.90
27858;DHT22;16852;51.446;6.528;2024-03-23T11:47:08;9.90;99.90
27858;DHT22;16852;51.446;6.528;2024-03-23T11:49:28;9.90;99.90
27858;DHT22;16852;51.446;6.528;2024-03-23T11:51:29;9.90;99.90
27858;DHT22;16852;51.446;6.528;2024-03-23T11:53:35;9.90;99.90
27858;DHT22;16852;51.446;6.528;2024-03-23T11:55:52;10.00;99.90
27858;DHT22;16852;51.446;6.528;2024-03-23T11:57:53;10.10;99.90
27858;DHT22;16852;51.446;6.528;2024-03-23T11:59:54;10.30;99.90
27858;DHT22;16852;51.446;6.528;2024-03-23T12:01:55;10.20;99.90
27858;DHT22;16852;51.446;6.528;2024-03-23T12:03:55;10.10;99.90
27858;DHT22;16852;51.446;6.528;2024-03-23T12:05:57;10.10;99.90
27858;DHT22;16852;51.446;6.528;2024-03-23T12:10:19;10.10;99.90
27858;DHT22;16852;51.446;6.528;2024-03-23T12:12:20;10.10;99.90
27858;DHT22;16852;51.446;6.528;2024-03-23T12:14:21;10.10;99.90
27858;DHT22;16852;51.446;6.528;2024-03-23T12:16:24;10.10;99.90
27858;DHT22;16852;51.446;6.528;2024-03-23T12:18:27;10.20;99.90
27858;DHT22;16852;51.446;6.528;2024-03-23T12:20:28;10.20;99.90
27858;DHT22;16852;51.446;6.528;2024-03-23T12:22:29;10.30;99.90
27858;DHT22;16852;51.446;6.528;2024-03-23T12:24:32;10.40;99.90
27858;DHT22;16852;51.446;6.528;2024-03-23T12:26:36;10.50;99.90
27858;DHT22;16852;51.446;6.528;2024-03-23T12:28:38;10.50;99.90
27858;DHT22;16852;51.446;6.528;2024-03-23T12:30:39;10.40;99.90
27858;DHT22;16852;51.446;6.528;2024-03-23T12:32:40;10.30;99.90
27858;DHT22;16852;51.446;6.528;2024-03-23T12:34:41;10.10;99.90
27858;DHT22;16852;51.446;6.528;2024-03-23T12:36:42;9.90;99.90
27858;DHT22;16852;51.446;6.528;2024-03-23T12:38:42;9.90;99.90
27858;DHT22;16852;51.446;6.528;2024-03-23T12:40:48;9.70;99.90
27858;DHT22;16852;51.446;6.528;2024-03-23T12:42:49;9.70;99.90
27858;DHT22;16852;51.446;6.528;2024-03-23T12:44:49;9.70;99.90
27858;DHT22;16852;51.446;6.528;2024-03-23T12:46:50;9.70;99.90
27858;DHT22;16852;51.446;6.528;2024-03-23T12:48:51;9.80;99.90
27858;DHT22;16852;51.446;6.528;2024-03-23T12:50:54;9.90;99.90
27858;DHT22;16852;51.446;6.528;2024-03-23T12:52:55;10.10;99.90
27858;DHT22;16852;51.446;6.528;2024-03-23T12:54:56;10.20;99.90
27858;DHT22;16852;51.446;6.528;2024-03-23T12:56:57;10.40;99.90
27858;DHT22;16852;51.446;6.528;2024-03-23T12:58:57;10.50;99.90
27858;DHT22;16852;51.446;6.528;2024-03-23T13:00:58;10.60;99.90
27858;DHT22;16852;51.446;6.528;2024-03-23T13:02:59;10.70;99.90
27858;DHT22;16852;51.446;6.528;2024-03-23T13:04:59;10.80;99.90
27858;DHT22;16852;51.446;6.528;2024-03-23T13:07:00;10.90;99.90
27858;DHT22;16852;51.446;6.528;2024-03-23T13:09:01;10.90;99.90
27858;DHT22;16852;51.446;6.528;2024-03-23T13:11:02;10.70;99.90
27858;DHT22;16852;51.446;6.528;2024-03-23T13:13:03;10.60;99.90
27858;DHT22;16852;51.446;6.528;2024-03-23T13:15:05;10.50;99.90
27858;DHT22;16852;51.446;6.528;2024-03-23T13:17:07;10.40;99.90
27858;DHT22;16852;51.446;6.528;2024-03-23T13:19:08;10.30;99.90
27858;DHT22;16852;51.446;6.528;2024-03-23T13:21:08;10.20;99.90
27858;DHT22;16852;51.446;6.528;2024-03-23T13:23:09;10.00;99.90
27858;DHT22;16852;51.446;6.528;2024-03-23T13:25:10;10.00;99.90
27858;DHT22;16852;51.446;6.528;2024-03-23T13:27:10;9.90;99.90
27858;DHT22;16852;51.446;6.528;2024-03-23T13:29:11;10.00;99.90
27858;DHT22;16852;51.446;6.528;2024-03-23T13:31:12;10.00;99.90
27858;DHT22;16852;51.446;6.528;2024-03-23T13:33:12;10.20;99.90
27858;DHT22;16852;51.446;6.528;2024-03-23T13:35:13;10.20;99.90
27858;DHT22;16852;51.446;6.528;2024-03-23T13:37:13;10.30;99.90
27858;DHT22;16852;51.446;6.528;2024-03-23T13:39:14;10.40;99.90
27858;DHT22;16852;51.446;6.528;2024-03-23T13:41:16;10.50;99.90
27858;DHT22;16852;51.446;6.528;2024-03-23T13:43:16;10.60;99.90
27858;DHT22;16852;51.446;6.528;2024-03-23T13:45:17;10.60;99.90
27858;DHT22;16852;51.446;6.528;2024-03-23T13:47:17;10.60;99.90
27858;DHT22;16852;51.446;6.528;2024-03-23T13:49:29;10.70;99.90
27858;DHT22;16852;51.446;6.528;2024-03-23T13:51:31;10.60;99.90
27858;DHT22;16852;51.446;6.528;2024-03-23T13:53:31;10.40;99.90